createdAt,value
2022-09-11T00:01:01.086Z,13.10
2022-09-11T00:03:30.033Z,13.10
2022-09-11T00:06:10.646Z,13.10
2022-09-11T00:08:39.551Z,13.00
2022-09-11T00:11:12.063Z,13.10
2022-09-11T00:13:39.963Z,13.10
2022-09-11T00:16:17.862Z,13.10
2022-09-11T00:18:44.625Z,13.10
2022-09-11T00:21:11.295Z,13.10
2022-09-11T00:23:38.295Z,13.10
2022-09-11T00:26:06.153Z,13.10
2022-09-11T00:28:33.592Z,13.10
2022-09-11T00:31:05.298Z,13.20
2022-09-11T00:33:33.460Z,13.20
2022-09-11T00:36:03.948Z,13.30
2022-09-11T00:38:33.211Z,13.30
2022-09-11T00:41:01.359Z,13.30
2022-09-11T00:43:29.824Z,13.20
2022-09-11T00:46:03.644Z,13.20
2022-09-11T00:48:36.257Z,13.20
2022-09-11T00:51:04.429Z,13.30
2022-09-11T00:53:35.747Z,13.20
2022-09-11T00:56:05.824Z,13.20
2022-09-11T00:58:35.310Z,13.20
2022-09-11T01:01:03.351Z,13.20
2022-09-11T01:03:32.122Z,13.10
2022-09-11T01:05:59.451Z,13.10
2022-09-11T01:08:27.648Z,13.20
2022-09-11T01:11:18.217Z,13.20
2022-09-11T01:13:44.869Z,13.20
2022-09-11T01:16:39.956Z,13.20
2022-09-11T01:19:37.688Z,13.30
2022-09-11T01:22:10.594Z,13.20
2022-09-11T01:25:09.060Z,13.30
2022-09-11T01:27:46.225Z,13.30
2022-09-11T01:30:16.029Z,13.40
2022-09-11T01:33:08.768Z,13.40
2022-09-11T01:36:06.026Z,13.40
2022-09-11T01:38:39.101Z,13.40
2022-09-11T01:41:11.629Z,13.40
2022-09-11T01:44:13.842Z,13.30
2022-09-11T01:46:45.739Z,13.30
2022-09-11T01:49:28.984Z,13.30
2022-09-11T01:52:02.849Z,13.30
2022-09-11T01:54:52.325Z,13.20
2022-09-11T01:57:29.615Z,13.20
2022-09-11T02:00:02.673Z,13.20
2022-09-11T02:02:39.428Z,13.30
2022-09-11T02:05:09.093Z,13.30
2022-09-11T02:07:47.585Z,13.20
2022-09-11T02:10:36.139Z,13.20
2022-09-11T02:13:10.781Z,13.20
2022-09-11T02:15:46.426Z,13.30
2022-09-11T02:18:38.450Z,13.20
2022-09-11T02:21:05.231Z,13.20
2022-09-11T02:23:32.329Z,13.30
2022-09-11T02:26:00.890Z,13.30
2022-09-11T02:28:29.062Z,13.30
2022-09-11T02:30:55.880Z,13.20
2022-09-11T02:33:27.432Z,13.10
2022-09-11T02:36:07.785Z,13.10
2022-09-11T02:38:52.346Z,13.10
2022-09-11T02:41:28.347Z,13.20
2022-09-11T02:44:01.294Z,13.20
2022-09-11T02:46:45.080Z,13.20
2022-09-11T02:49:37.304Z,13.20
2022-09-11T02:52:28.557Z,13.00
2022-09-11T02:55:02.380Z,13.00
2022-09-11T02:57:35.649Z,13.10
2022-09-11T03:00:06.465Z,13.10
2022-09-11T03:02:37.584Z,13.10
2022-09-11T03:05:06.323Z,13.10
2022-09-11T03:07:33.542Z,13.20
2022-09-11T03:10:00.547Z,13.20
2022-09-11T03:12:27.255Z,13.20
2022-09-11T03:14:53.953Z,13.10
2022-09-11T03:17:21.832Z,13.10
2022-09-11T03:19:51.278Z,13.00
2022-09-11T03:22:18.893Z,13.10
2022-09-11T03:24:46.186Z,13.10
2022-09-11T03:27:12.979Z,13.20
2022-09-11T03:29:41.254Z,13.20
2022-09-11T03:32:08.439Z,13.10
2022-09-11T03:34:35.143Z,13.10
2022-09-11T03:37:02.179Z,13.00
2022-09-11T03:39:29.204Z,13.00
2022-09-11T03:41:59.156Z,13.00
2022-09-11T03:44:27.221Z,13.00
2022-09-11T03:46:53.986Z,13.00
2022-09-11T03:49:20.757Z,13.00
2022-09-11T03:51:50.578Z,13.00
2022-09-11T03:54:18.537Z,13.00
2022-09-11T03:56:46.786Z,13.00
2022-09-11T03:59:15.496Z,13.00
2022-09-11T04:01:43.725Z,13.00
2022-09-11T04:04:10.444Z,13.00
2022-09-11T04:06:40.818Z,13.00
2022-09-11T04:09:09.037Z,13.10
2022-09-11T04:11:38.932Z,13.10
2022-09-11T04:14:10.906Z,13.10
2022-09-11T04:16:39.192Z,13.20
2022-09-11T04:19:05.948Z,13.10
2022-09-11T04:21:36.259Z,13.20
2022-09-11T04:24:03.058Z,13.20
2022-09-11T04:26:32.190Z,13.20
2022-09-11T04:29:32.515Z,13.20
2022-09-11T04:31:59.622Z,13.20
2022-09-11T04:34:30.273Z,13.30
2022-09-11T04:36:57.838Z,13.30
2022-09-11T04:39:25.964Z,13.30
2022-09-11T04:41:52.888Z,13.20
2022-09-11T04:44:20.693Z,13.30
2022-09-11T04:46:47.985Z,13.40
2022-09-11T04:49:14.832Z,13.40
2022-09-11T04:51:42.650Z,13.30
2022-09-11T04:54:15.197Z,13.30
2022-09-11T04:56:42.415Z,13.30
2022-09-11T04:59:19.649Z,13.30
2022-09-11T05:01:55.350Z,13.30
2022-09-11T05:04:25.919Z,13.30
2022-09-11T05:06:54.064Z,13.30
2022-09-11T05:09:20.879Z,13.30
2022-09-11T05:11:48.825Z,13.20
2022-09-11T05:14:17.027Z,13.20
2022-09-11T05:16:46.135Z,13.20
2022-09-11T05:19:15.078Z,13.20
2022-09-11T05:21:43.989Z,13.20
2022-09-11T05:24:10.847Z,13.30
2022-09-11T05:26:38.187Z,13.20
2022-09-11T05:29:16.347Z,13.30
2022-09-11T05:32:01.238Z,13.30
2022-09-11T05:34:29.879Z,13.40
2022-09-11T05:36:57.754Z,13.40
2022-09-11T05:39:27.268Z,13.50
2022-09-11T05:41:58.213Z,13.50
2022-09-11T05:44:30.948Z,13.50
2022-09-11T05:46:58.496Z,13.40
2022-09-11T05:49:25.646Z,13.50
2022-09-11T05:51:52.619Z,13.60
2022-09-11T05:54:19.370Z,13.60
2022-09-11T05:56:46.859Z,13.60
2022-09-11T05:59:21.103Z,13.60
2022-09-11T06:01:50.406Z,13.50
2022-09-11T06:04:30.664Z,13.60
2022-09-11T06:06:58.970Z,13.60
2022-09-11T06:09:27.152Z,13.60
2022-09-11T06:11:54.059Z,13.60
2022-09-11T06:14:21.478Z,13.60
2022-09-11T06:16:49.870Z,13.70
2022-09-11T06:19:16.936Z,13.70
2022-09-11T06:21:44.902Z,13.60
2022-09-11T06:24:25.729Z,13.60
2022-09-11T06:26:52.569Z,13.60
2022-09-11T06:29:19.780Z,13.60
2022-09-11T06:31:51.354Z,13.70
2022-09-11T06:34:21.599Z,13.60
2022-09-11T06:36:51.787Z,13.60
2022-09-11T06:39:23.191Z,13.60
2022-09-11T06:41:50.945Z,13.60
2022-09-11T06:44:21.021Z,13.70
2022-09-11T06:46:47.812Z,13.80
2022-09-11T06:49:14.750Z,13.80
2022-09-11T06:52:00.003Z,13.90
2022-09-11T06:54:27.839Z,13.90
2022-09-11T06:56:59.265Z,14.00
2022-09-11T06:59:26.881Z,14.00
2022-09-11T07:01:54.784Z,14.00
2022-09-11T07:04:23.413Z,14.10
2022-09-11T07:06:50.505Z,14.20
2022-09-11T07:09:18.226Z,14.40
2022-09-11T07:11:52.183Z,14.40
2022-09-11T07:14:23.554Z,14.40
2022-09-11T07:16:56.349Z,14.40
2022-09-11T07:19:27.637Z,14.40
2022-09-11T07:21:57.727Z,14.20
2022-09-11T07:24:26.171Z,14.30
2022-09-11T07:26:57.219Z,14.30
2022-09-11T07:29:31.502Z,14.40
2022-09-11T07:31:58.787Z,14.30
2022-09-11T07:34:26.930Z,14.40
2022-09-11T07:36:55.406Z,14.50
2022-09-11T07:39:25.068Z,14.40
2022-09-11T07:41:59.050Z,14.50
2022-09-11T07:44:29.153Z,14.50
2022-09-11T07:46:56.853Z,14.70
2022-09-11T07:49:24.207Z,15.00
2022-09-11T07:51:52.426Z,15.20
2022-09-11T07:54:29.011Z,15.30
2022-09-11T07:56:58.098Z,15.40
2022-09-11T07:59:25.530Z,15.50
2022-09-11T08:01:53.466Z,15.60
2022-09-11T08:04:21.216Z,15.50
2022-09-11T08:06:51.041Z,15.40
2022-09-11T08:09:22.302Z,15.20
2022-09-11T08:11:58.500Z,15.30
2022-09-11T08:14:27.615Z,15.40
2022-09-11T08:16:59.867Z,15.50
2022-09-11T08:19:29.097Z,15.70
2022-09-11T08:22:00.330Z,15.90
2022-09-11T08:24:28.391Z,16.10
2022-09-11T08:27:00.300Z,16.20
2022-09-11T08:29:29.045Z,16.10
2022-09-11T08:32:00.323Z,16.00
2022-09-11T08:34:28.988Z,15.90
2022-09-11T08:36:56.067Z,15.80
2022-09-11T08:39:23.935Z,15.80
2022-09-11T08:42:09.454Z,15.90
2022-09-11T08:44:50.222Z,16.00
2022-09-11T08:47:40.484Z,16.00
2022-09-11T08:50:49.511Z,16.10
2022-09-11T08:53:19.086Z,16.20
2022-09-11T08:56:00.354Z,16.30
2022-09-11T08:58:47.529Z,16.20
2022-09-11T09:01:47.226Z,16.20
2022-09-11T09:04:29.015Z,16.40
2022-09-11T09:06:55.617Z,16.40
2022-09-11T09:09:54.111Z,16.30
2022-09-11T09:12:45.618Z,16.10
2022-09-11T09:15:35.184Z,16.20
2022-09-11T09:18:10.789Z,16.30
2022-09-11T09:20:47.073Z,16.20
2022-09-11T09:23:23.777Z,16.40
2022-09-11T09:25:55.921Z,16.60
2022-09-11T09:28:25.454Z,16.80
2022-09-11T09:30:59.011Z,16.90
2022-09-11T09:33:35.353Z,16.90
2022-09-11T09:36:20.905Z,16.90
2022-09-11T09:38:49.202Z,16.80
2022-09-11T09:41:22.730Z,16.80
2022-09-11T09:44:05.470Z,16.70
2022-09-11T09:46:40.454Z,16.60
2022-09-11T09:49:14.593Z,16.40
2022-09-11T09:51:42.211Z,16.40
2022-09-11T09:54:18.021Z,16.60
2022-09-11T09:56:53.151Z,16.60
2022-09-11T09:59:32.436Z,16.60
2022-09-11T10:01:59.397Z,16.70
2022-09-11T10:04:29.351Z,17.00
2022-09-11T10:07:11.585Z,17.20
2022-09-11T10:09:52.188Z,17.00
2022-09-11T10:12:22.773Z,16.90
2022-09-11T10:14:57.889Z,16.90
2022-09-11T10:17:37.758Z,16.90
2022-09-11T10:20:23.124Z,16.90
2022-09-11T10:22:51.885Z,17.10
2022-09-11T10:25:26.361Z,17.20
2022-09-11T10:27:53.089Z,17.20
2022-09-11T10:30:34.593Z,17.20
2022-09-11T10:33:05.300Z,17.30
2022-09-11T10:35:35.823Z,17.40
2022-09-11T10:38:11.695Z,17.30
2022-09-11T10:40:39.973Z,17.40
2022-09-11T10:43:19.475Z,18.00
2022-09-11T10:46:02.811Z,18.60
2022-09-11T10:48:29.764Z,19.20
2022-09-11T10:51:07.397Z,19.40
2022-09-11T10:53:47.938Z,19.60
2022-09-11T10:56:15.928Z,19.30
2022-09-11T10:58:45.219Z,19.00
2022-09-11T11:01:11.985Z,18.60
2022-09-11T11:03:38.698Z,18.40
2022-09-11T11:06:06.330Z,18.80
2022-09-11T11:09:05.172Z,19.10
2022-09-11T11:12:01.495Z,19.20
2022-09-11T11:14:34.137Z,19.30
2022-09-11T11:17:31.795Z,19.60
2022-09-11T11:20:10.878Z,19.80
2022-09-11T11:23:05.713Z,20.20
2022-09-11T11:25:59.885Z,20.40
2022-09-11T11:28:48.876Z,20.90
2022-09-11T11:31:44.374Z,21.00
2022-09-11T11:34:33.658Z,20.70
2022-09-11T11:37:15.231Z,19.90
2022-09-11T11:40:10.452Z,19.60
2022-09-11T11:42:47.042Z,19.60
2022-09-11T11:45:26.385Z,19.50
2022-09-11T11:47:55.045Z,19.30
2022-09-11T11:50:29.730Z,19.10
2022-09-11T11:53:23.124Z,19.40
2022-09-11T11:55:58.810Z,19.90
2022-09-11T11:58:43.046Z,20.20
2022-09-11T12:01:29.590Z,20.80
2022-09-11T12:04:30.771Z,21.20
2022-09-11T12:06:59.191Z,21.30
2022-09-11T12:09:31.570Z,21.30
2022-09-11T12:12:06.353Z,21.50
2022-09-11T12:14:36.127Z,21.60
2022-09-11T12:17:25.392Z,21.50
2022-09-11T12:20:13.144Z,21.70
2022-09-11T12:22:50.335Z,21.30
2022-09-11T12:25:20.769Z,21.10
2022-09-11T12:27:48.771Z,21.20
2022-09-11T12:30:18.345Z,21.30
2022-09-11T12:33:09.248Z,21.20
2022-09-11T12:35:49.473Z,20.90
2022-09-11T12:38:26.829Z,20.50
2022-09-11T12:40:58.505Z,20.10
2022-09-11T12:43:30.066Z,20.10
2022-09-11T12:45:57.391Z,20.30
2022-09-11T12:48:37.199Z,20.80
2022-09-11T12:51:06.222Z,21.30
2022-09-11T12:53:36.463Z,21.10
2022-09-11T12:56:07.717Z,21.50
2022-09-11T12:58:44.901Z,21.70
2022-09-11T13:01:15.031Z,22.10
2022-09-11T13:04:02.193Z,22.40
2022-09-11T13:06:51.898Z,22.40
2022-09-11T13:09:26.519Z,22.60
2022-09-11T13:12:14.333Z,22.80
2022-09-11T13:14:55.088Z,22.30
2022-09-11T13:17:26.967Z,21.50
2022-09-11T13:20:09.700Z,21.10
2022-09-11T13:22:37.482Z,20.90
2022-09-11T13:25:17.397Z,20.60
2022-09-11T13:28:01.176Z,21.10
2022-09-11T13:30:28.157Z,21.10
2022-09-11T13:33:08.342Z,21.60
2022-09-11T13:35:39.949Z,22.30
2022-09-11T13:38:13.008Z,22.70
2022-09-11T13:41:00.732Z,22.60
2022-09-11T13:43:58.603Z,22.40
2022-09-11T13:46:26.660Z,22.00
2022-09-11T13:48:58.591Z,22.10
2022-09-11T13:51:31.306Z,22.30
2022-09-11T13:54:03.960Z,22.00
2022-09-11T13:56:56.394Z,21.70
2022-09-11T13:59:38.305Z,21.30
2022-09-11T14:02:28.203Z,20.90
2022-09-11T14:05:07.255Z,20.60
2022-09-11T14:07:42.920Z,20.30
2022-09-11T14:10:27.985Z,20.10
2022-09-11T14:13:14.531Z,20.40
2022-09-11T14:15:47.490Z,20.50
2022-09-11T14:19:12.219Z,20.30
2022-09-11T14:21:41.551Z,19.90
2022-09-11T14:24:27.082Z,20.00
2022-09-11T14:26:54.062Z,20.10
2022-09-11T14:29:28.005Z,20.40
2022-09-11T14:32:15.725Z,20.80
2022-09-11T14:34:42.828Z,20.70
2022-09-11T14:37:12.617Z,20.80
2022-09-11T14:40:00.118Z,21.00
2022-09-11T14:42:30.437Z,21.20
2022-09-11T14:44:57.650Z,21.10
2022-09-11T14:47:26.714Z,21.20
2022-09-11T14:49:56.012Z,21.40
2022-09-11T14:52:26.405Z,21.10
2022-09-11T14:54:54.304Z,21.00
2022-09-11T14:57:23.330Z,21.00
2022-09-11T14:59:50.837Z,20.90
2022-09-11T15:02:25.251Z,20.80
2022-09-11T15:04:53.618Z,20.40
2022-09-11T15:07:23.199Z,20.10
2022-09-11T15:09:51.601Z,20.00
2022-09-11T15:12:19.323Z,19.60
2022-09-11T15:14:57.519Z,19.40
2022-09-11T15:17:25.693Z,19.40
2022-09-11T15:19:53.402Z,19.00
2022-09-11T15:22:20.480Z,18.80
2022-09-11T15:24:49.685Z,18.60
2022-09-11T15:27:17.152Z,18.50
2022-09-11T15:29:44.002Z,18.40
2022-09-11T15:32:12.501Z,18.20
2022-09-11T15:34:39.748Z,18.10
2022-09-11T15:37:06.937Z,17.90
2022-09-11T15:39:34.151Z,17.80
2022-09-11T15:42:01.926Z,17.70
2022-09-11T15:44:29.316Z,17.60
2022-09-11T15:46:58.356Z,17.40
2022-09-11T15:49:28.080Z,17.30
2022-09-11T15:51:56.391Z,17.30
2022-09-11T15:54:23.693Z,17.40
2022-09-11T15:56:52.041Z,17.40
2022-09-11T15:59:18.908Z,17.30
2022-09-11T16:01:45.722Z,17.20
2022-09-11T16:04:15.278Z,17.10
2022-09-11T16:06:45.830Z,17.10
2022-09-11T16:09:16.993Z,17.00
2022-09-11T16:11:44.422Z,16.90
2022-09-11T16:14:18.467Z,16.80
2022-09-11T16:16:48.662Z,16.80
2022-09-11T16:19:16.379Z,16.70
2022-09-11T16:21:43.390Z,16.70
2022-09-11T16:24:12.234Z,16.60
2022-09-11T16:26:39.793Z,16.60
2022-09-11T16:29:08.334Z,16.60
2022-09-11T16:31:35.336Z,16.60
2022-09-11T16:34:05.982Z,16.60
2022-09-11T16:36:38.467Z,16.60
2022-09-11T16:39:07.294Z,16.50
2022-09-11T16:41:34.383Z,16.40
2022-09-11T16:44:01.242Z,16.40
2022-09-11T16:46:28.235Z,16.30
2022-09-11T16:49:01.063Z,16.40
2022-09-11T16:51:29.561Z,16.40
2022-09-11T16:53:56.415Z,16.40
2022-09-11T16:56:24.418Z,16.40
2022-09-11T16:58:51.626Z,16.40
2022-09-11T17:01:21.286Z,16.30
2022-09-11T17:03:51.841Z,16.30
2022-09-11T17:06:20.164Z,16.30
2022-09-11T17:08:50.363Z,16.20
2022-09-11T17:11:19.777Z,16.20
2022-09-11T17:13:47.058Z,16.20
2022-09-11T17:16:20.717Z,16.20
2022-09-11T17:18:53.853Z,16.20
2022-09-11T17:21:24.223Z,16.30
2022-09-11T17:23:53.147Z,16.30
2022-09-11T17:26:20.666Z,16.20
2022-09-11T17:28:49.975Z,16.10
2022-09-11T17:31:19.157Z,16.00
2022-09-11T17:33:47.108Z,16.00
2022-09-11T17:36:17.337Z,16.00
2022-09-11T17:38:46.785Z,16.00
2022-09-11T17:41:14.576Z,15.90
2022-09-11T17:43:42.285Z,15.90
2022-09-11T17:46:15.617Z,15.80
2022-09-11T17:48:43.395Z,15.70
2022-09-11T17:51:16.367Z,15.60
2022-09-11T17:53:48.014Z,15.60
2022-09-11T17:56:21.435Z,15.60
2022-09-11T17:58:53.490Z,15.60
2022-09-11T18:01:21.177Z,15.60
2022-09-11T18:03:52.882Z,15.50
2022-09-11T18:06:33.906Z,15.50
2022-09-11T18:09:03.837Z,15.50
2022-09-11T18:11:31.100Z,15.40
2022-09-11T18:14:02.648Z,15.30
2022-09-11T18:16:30.775Z,15.20
2022-09-11T18:18:58.239Z,15.20
2022-09-11T18:21:26.174Z,15.10
2022-09-11T18:23:53.117Z,14.80
2022-09-11T18:26:29.774Z,14.80
2022-09-11T18:28:59.980Z,14.80
2022-09-11T18:31:30.167Z,14.70
2022-09-11T18:34:00.478Z,14.80
2022-09-11T18:36:29.825Z,14.70
2022-09-11T18:39:01.213Z,14.60
2022-09-11T18:41:30.464Z,14.50
2022-09-11T18:44:00.132Z,14.50
2022-09-11T18:46:27.600Z,14.50
2022-09-11T18:48:56.124Z,14.50
2022-09-11T18:51:23.318Z,14.50
2022-09-11T18:53:54.334Z,14.40
2022-09-11T18:56:28.505Z,14.30
2022-09-11T18:58:56.051Z,14.20
2022-09-11T19:01:26.070Z,14.10
2022-09-11T19:03:53.584Z,14.00
2022-09-11T19:06:24.665Z,13.90
2022-09-11T19:08:53.429Z,13.90
2022-09-11T19:11:25.961Z,13.90
2022-09-11T19:13:54.658Z,14.00
2022-09-11T19:16:22.958Z,14.10
2022-09-11T19:18:54.449Z,14.10
2022-09-11T19:21:23.117Z,14.00
2022-09-11T19:23:55.574Z,13.90
2022-09-11T19:26:28.626Z,13.80
2022-09-11T19:29:03.787Z,13.80
2022-09-11T19:31:32.091Z,13.80
2022-09-11T19:34:03.528Z,13.70
2022-09-11T19:36:33.269Z,13.60
2022-09-11T19:39:01.093Z,13.50
2022-09-11T19:41:34.223Z,13.40
2022-09-11T19:44:02.900Z,13.50
2022-09-11T19:46:32.352Z,13.60
2022-09-11T19:49:06.136Z,13.60
2022-09-11T19:51:38.878Z,13.50
2022-09-11T19:54:07.051Z,13.40
2022-09-11T19:56:37.204Z,13.30
2022-09-11T19:59:08.314Z,13.30
2022-09-11T20:01:37.167Z,13.30
2022-09-11T20:04:04.642Z,13.30
2022-09-11T20:06:34.361Z,13.30
2022-09-11T20:09:27.252Z,13.30
2022-09-11T20:11:49.099Z,13.20
2022-09-11T20:14:17.287Z,13.20
2022-09-11T20:16:44.190Z,13.10
2022-09-11T20:19:10.920Z,13.20
2022-09-11T20:21:38.015Z,13.20
2022-09-11T20:24:06.428Z,13.10
2022-09-11T20:26:33.869Z,13.10
2022-09-11T20:29:03.718Z,13.10
2022-09-11T20:31:37.887Z,13.00
2022-09-11T20:34:09.145Z,13.00
2022-09-11T20:36:35.899Z,12.90
2022-09-11T20:39:03.136Z,13.00
2022-09-11T20:41:30.588Z,12.90
2022-09-11T20:43:59.971Z,12.90
2022-09-11T20:46:27.365Z,12.90
2022-09-11T20:48:54.358Z,12.90
2022-09-11T20:51:22.463Z,12.80
2022-09-11T20:53:49.885Z,12.80
2022-09-11T20:56:20.309Z,12.60
2022-09-11T20:58:47.342Z,12.50
2022-09-11T21:01:19.195Z,12.50
2022-09-11T21:03:56.546Z,12.60
2022-09-11T21:06:26.537Z,12.70
2022-09-11T21:08:58.903Z,12.60
2022-09-11T21:11:27.474Z,12.50
2022-09-11T21:13:54.481Z,12.40
2022-09-11T21:16:21.678Z,12.20
2022-09-11T21:18:53.519Z,12.20
2022-09-11T21:21:21.697Z,12.40
2022-09-11T21:23:48.770Z,12.40
2022-09-11T21:26:17.017Z,12.40
2022-09-11T21:28:44.165Z,12.40
2022-09-11T21:31:11.148Z,12.30
2022-09-11T21:33:37.891Z,12.20
2022-09-11T21:36:06.056Z,12.20
2022-09-11T21:38:33.224Z,12.30
2022-09-11T21:41:02.527Z,12.30
2022-09-11T21:43:29.685Z,12.30
2022-09-11T21:45:56.633Z,12.20
2022-09-11T21:48:24.202Z,12.20
2022-09-11T21:50:51.639Z,12.20
2022-09-11T21:53:19.369Z,12.10
2022-09-11T21:55:48.578Z,12.10
2022-09-11T21:58:18.065Z,12.10
2022-09-11T22:00:46.098Z,12.10
2022-09-11T22:03:13.268Z,12.10
2022-09-11T22:05:43.245Z,12.10
2022-09-11T22:08:12.139Z,12.10
2022-09-11T22:10:43.777Z,12.10
2022-09-11T22:13:10.996Z,12.00
2022-09-11T22:15:46.402Z,12.00
2022-09-11T22:18:13.566Z,12.00
2022-09-11T22:20:41.718Z,11.90
2022-09-11T22:23:13.297Z,11.90
2022-09-11T22:25:41.151Z,11.90
2022-09-11T22:28:08.308Z,11.90
2022-09-11T22:30:35.225Z,11.80
2022-09-11T22:33:02.047Z,11.80
2022-09-11T22:35:29.068Z,11.90
2022-09-11T22:37:55.877Z,11.90
2022-09-11T22:40:22.570Z,11.80
2022-09-11T22:42:49.906Z,11.80
2022-09-11T22:45:17.015Z,11.70
2022-09-11T22:47:43.717Z,11.70
2022-09-11T22:50:10.859Z,11.70
2022-09-11T22:52:37.704Z,11.70
2022-09-11T22:55:05.898Z,11.70
2022-09-11T22:57:35.073Z,11.70
2022-09-11T23:00:02.893Z,11.70
2022-09-11T23:02:30.005Z,11.70
2022-09-11T23:05:15.226Z,11.50
2022-09-11T23:07:42.162Z,11.50
2022-09-11T23:10:09.973Z,11.50
2022-09-11T23:12:37.298Z,11.50
2022-09-11T23:15:04.470Z,11.50
2022-09-11T23:17:31.153Z,11.40
2022-09-11T23:19:57.829Z,11.40
2022-09-11T23:22:26.812Z,11.30
2022-09-11T23:24:53.850Z,11.20
2022-09-11T23:27:20.791Z,11.20
2022-09-11T23:29:47.506Z,11.30
2022-09-11T23:32:14.634Z,11.40
2022-09-11T23:34:41.309Z,11.30
2022-09-11T23:37:08.052Z,11.30
2022-09-11T23:39:34.818Z,11.30
2022-09-11T23:42:01.517Z,11.20
2022-09-11T23:44:28.194Z,11.20
2022-09-11T23:46:54.879Z,11.20
2022-09-11T23:49:21.551Z,11.10
2022-09-11T23:51:49.830Z,11.10
2022-09-11T23:54:16.652Z,11.20
2022-09-11T23:56:43.734Z,11.20
2022-09-11T23:59:10.530Z,11.20
